Impacts TAF Board INFO
FOR SITUATIONAL AWARENESS. NOT TO BE USED FOR FLIGHT PLANNING PURPOSES.
IDs:

KMIA - Miami Intl, FL, US

Issued at 0902 UTC 18 Dec 2017
Updated at 1051 UTC 18 Dec 2017
Potential Impact None Slight Moderate High
Time<<19/11Z 19/12Z 19/13Z 19/14Z 19/15Z 19/16Z 19/17Z 19/18Z 19/19Z 19/20Z 19/21Z 19/22Z 19/23Z
Type PRVL
VIS >6
CIG --
Cover SCT
FltCat VFR
WX --
WDir 100
WSpd 4
WGst --

Raw TAF
KMIA 180902Z 1809/1912 10003KT P6SM FEW025 SCT050 SCT250
  FM181500 10010KT P6SM FEW015 SCT030 BKN050
  FM182300 10004KT P6SM FEW025 SCT050


METAR Board
Radar Display
Forecast Discussion

FOR SITUATIONAL AWARENESS. NOT TO BE USED FOR FLIGHT PLANNING PURPOSES.